sensor_id;sensor_type;location;lat;lon;timestamp;P1;durP1;ratioP1;P2;durP2;ratioP2
10009;SDS011;5044;48.652;9.250;2022-07-17T00:00:55;7.85;;;2.63;;
10009;SDS011;5044;48.652;9.250;2022-07-17T00:03:23;3.05;;;2.20;;
10009;SDS011;5044;48.652;9.250;2022-07-17T00:05:51;6.32;;;1.98;;
10009;SDS011;5044;48.652;9.250;2022-07-17T00:08:18;6.30;;;1.88;;
10009;SDS011;5044;48.652;9.250;2022-07-17T00:10:45;4.90;;;1.88;;
10009;SDS011;5044;48.652;9.250;2022-07-17T00:13:12;10.13;;;2.28;;
10009;SDS011;5044;48.652;9.250;2022-07-17T00:15:39;11.75;;;2.60;;
10009;SDS011;5044;48.652;9.250;2022-07-17T00:18:06;6.30;;;2.03;;
10009;SDS011;5044;48.652;9.250;2022-07-17T00:20:34;4.95;;;1.88;;
10009;SDS011;5044;48.652;9.250;2022-07-17T00:23:02;4.55;;;2.28;;
10009;SDS011;5044;48.652;9.250;2022-07-17T00:25:29;3.50;;;2.10;;
10009;SDS011;5044;48.652;9.250;2022-07-17T00:27:57;8.13;;;2.13;;
10009;SDS011;5044;48.652;9.250;2022-07-17T00:30:24;3.80;;;1.55;;
10009;SDS011;5044;48.652;9.250;2022-07-17T00:32:51;4.15;;;1.98;;
10009;SDS011;5044;48.652;9.250;2022-07-17T00:35:18;3.03;;;2.00;;
10009;SDS011;5044;48.652;9.250;2022-07-17T00:37:47;4.63;;;2.05;;
10009;SDS011;5044;48.652;9.250;2022-07-17T00:40:19;3.67;;;1.80;;
10009;SDS011;5044;48.652;9.250;2022-07-17T00:42:47;4.97;;;2.88;;
10009;SDS011;5044;48.652;9.250;2022-07-17T00:45:14;3.88;;;2.15;;
10009;SDS011;5044;48.652;9.250;2022-07-17T00:47:52;5.07;;;2.00;;
10009;SDS011;5044;48.652;9.250;2022-07-17T00:50:21;3.90;;;2.30;;
10009;SDS011;5044;48.652;9.250;2022-07-17T00:52:49;4.30;;;2.47;;
10009;SDS011;5044;48.652;9.250;2022-07-17T00:55:16;4.43;;;2.50;;
10009;SDS011;5044;48.652;9.250;2022-07-17T00:57:45;6.32;;;2.53;;
10009;SDS011;5044;48.652;9.250;2022-07-17T01:00:14;4.28;;;2.85;;
10009;SDS011;5044;48.652;9.250;2022-07-17T01:02:44;4.97;;;2.22;;
10009;SDS011;5044;48.652;9.250;2022-07-17T01:05:12;6.57;;;2.67;;
10009;SDS011;5044;48.652;9.250;2022-07-17T01:07:39;4.20;;;2.53;;
10009;SDS011;5044;48.652;9.250;2022-07-17T01:10:06;8.77;;;3.17;;
10009;SDS011;5044;48.652;9.250;2022-07-17T01:12:38;3.40;;;2.40;;
10009;SDS011;5044;48.652;9.250;2022-07-17T01:15:06;5.38;;;3.25;;
10009;SDS011;5044;48.652;9.250;2022-07-17T01:17:34;3.45;;;2.50;;
10009;SDS011;5044;48.652;9.250;2022-07-17T01:20:04;2.20;;;2.00;;
10009;SDS011;5044;48.652;9.250;2022-07-17T01:22:38;3.40;;;2.10;;
10009;SDS011;5044;48.652;9.250;2022-07-17T01:25:07;4.70;;;1.80;;
10009;SDS011;5044;48.652;9.250;2022-07-17T01:27:35;4.15;;;2.13;;
10009;SDS011;5044;48.652;9.250;2022-07-17T01:30:02;4.90;;;2.15;;
10009;SDS011;5044;48.652;9.250;2022-07-17T01:32:31;4.95;;;2.50;;
10009;SDS011;5044;48.652;9.250;2022-07-17T01:34:58;4.15;;;2.17;;
10009;SDS011;5044;48.652;9.250;2022-07-17T01:37:25;3.13;;;1.80;;
10009;SDS011;5044;48.652;9.250;2022-07-17T01:39:53;2.47;;;1.83;;
10009;SDS011;5044;48.652;9.250;2022-07-17T01:42:20;2.38;;;2.08;;
10009;SDS011;5044;48.652;9.250;2022-07-17T01:44:47;4.18;;;2.42;;
10009;SDS011;5044;48.652;9.250;2022-07-17T01:47:14;4.82;;;2.40;;
10009;SDS011;5044;48.652;9.250;2022-07-17T01:49:44;3.55;;;2.50;;
10009;SDS011;5044;48.652;9.250;2022-07-17T01:52:12;3.15;;;2.15;;
10009;SDS011;5044;48.652;9.250;2022-07-17T01:54:39;4.95;;;3.33;;
10009;SDS011;5044;48.652;9.250;2022-07-17T01:57:08;3.60;;;2.25;;
10009;SDS011;5044;48.652;9.250;2022-07-17T01:59:36;3.90;;;2.78;;
10009;SDS011;5044;48.652;9.250;2022-07-17T02:02:05;3.70;;;1.95;;
10009;SDS011;5044;48.652;9.250;2022-07-17T02:04:33;6.40;;;2.60;;
10009;SDS011;5044;48.652;9.250;2022-07-17T02:07:00;5.20;;;2.40;;
10009;SDS011;5044;48.652;9.250;2022-07-17T02:09:27;5.15;;;2.50;;
10009;SDS011;5044;48.652;9.250;2022-07-17T02:11:54;2.88;;;2.42;;
10009;SDS011;5044;48.652;9.250;2022-07-17T02:14:22;2.75;;;1.98;;
10009;SDS011;5044;48.652;9.250;2022-07-17T02:16:49;4.68;;;2.58;;
10009;SDS011;5044;48.652;9.250;2022-07-17T02:19:16;3.20;;;2.30;;
10009;SDS011;5044;48.652;9.250;2022-07-17T02:21:43;2.97;;;2.35;;
10009;SDS011;5044;48.652;9.250;2022-07-17T02:24:10;4.20;;;2.60;;
10009;SDS011;5044;48.652;9.250;2022-07-17T02:26:39;2.83;;;2.08;;
10009;SDS011;5044;48.652;9.250;2022-07-17T02:29:06;5.53;;;2.47;;
10009;SDS011;5044;48.652;9.250;2022-07-17T02:31:34;5.72;;;2.63;;
10009;SDS011;5044;48.652;9.250;2022-07-17T02:34:01;3.60;;;2.33;;
10009;SDS011;5044;48.652;9.250;2022-07-17T02:36:28;4.10;;;2.60;;
10009;SDS011;5044;48.652;9.250;2022-07-17T02:38:55;6.40;;;3.15;;
10009;SDS011;5044;48.652;9.250;2022-07-17T02:41:22;3.63;;;2.35;;
10009;SDS011;5044;48.652;9.250;2022-07-17T02:43:49;4.30;;;2.60;;
10009;SDS011;5044;48.652;9.250;2022-07-17T02:46:16;2.97;;;2.10;;
10009;SDS011;5044;48.652;9.250;2022-07-17T02:48:44;4.40;;;2.28;;
10009;SDS011;5044;48.652;9.250;2022-07-17T02:51:11;4.47;;;2.25;;
10009;SDS011;5044;48.652;9.250;2022-07-17T02:53:38;6.43;;;2.20;;
10009;SDS011;5044;48.652;9.250;2022-07-17T02:56:05;4.43;;;2.58;;
10009;SDS011;5044;48.652;9.250;2022-07-17T02:58:32;4.60;;;2.65;;
10009;SDS011;5044;48.652;9.250;2022-07-17T03:00:59;4.35;;;2.35;;
10009;SDS011;5044;48.652;9.250;2022-07-17T03:03:26;4.10;;;2.03;;
10009;SDS011;5044;48.652;9.250;2022-07-17T03:05:54;5.95;;;2.70;;
10009;SDS011;5044;48.652;9.250;2022-07-17T03:08:21;5.13;;;3.05;;
10009;SDS011;5044;48.652;9.250;2022-07-17T03:10:48;6.70;;;3.03;;
10009;SDS011;5044;48.652;9.250;2022-07-17T03:13:15;5.38;;;3.20;;
10009;SDS011;5044;48.652;9.250;2022-07-17T03:15:41;3.75;;;3.05;;
10009;SDS011;5044;48.652;9.250;2022-07-17T03:18:08;3.58;;;2.65;;
10009;SDS011;5044;48.652;9.250;2022-07-17T03:20:35;3.47;;;2.55;;
10009;SDS011;5044;48.652;9.250;2022-07-17T03:23:03;5.25;;;2.20;;
10009;SDS011;5044;48.652;9.250;2022-07-17T03:25:30;6.13;;;3.38;;
10009;SDS011;5044;48.652;9.250;2022-07-17T03:27:57;7.28;;;3.55;;
10009;SDS011;5044;48.652;9.250;2022-07-17T03:30:24;3.40;;;2.60;;
10009;SDS011;5044;48.652;9.250;2022-07-17T03:32:50;2.17;;;1.98;;
10009;SDS011;5044;48.652;9.250;2022-07-17T03:35:17;3.22;;;1.92;;
10009;SDS011;5044;48.652;9.250;2022-07-17T03:37:44;2.40;;;1.98;;
10009;SDS011;5044;48.652;9.250;2022-07-17T03:40:12;5.07;;;1.75;;
10009;SDS011;5044;48.652;9.250;2022-07-17T03:42:39;2.97;;;2.00;;
10009;SDS011;5044;48.652;9.250;2022-07-17T03:45:06;4.53;;;1.83;;
10009;SDS011;5044;48.652;9.250;2022-07-17T03:47:33;4.03;;;1.85;;
10009;SDS011;5044;48.652;9.250;2022-07-17T03:50:00;3.67;;;2.50;;
10009;SDS011;5044;48.652;9.250;2022-07-17T03:52:27;4.00;;;2.60;;
10009;SDS011;5044;48.652;9.250;2022-07-17T03:54:54;2.95;;;2.25;;
10009;SDS011;5044;48.652;9.250;2022-07-17T03:57:22;3.22;;;2.10;;
10009;SDS011;5044;48.652;9.250;2022-07-17T03:59:49;4.57;;;2.85;;
10009;SDS011;5044;48.652;9.250;2022-07-17T04:02:16;5.72;;;3.13;;
10009;SDS011;5044;48.652;9.250;2022-07-17T04:04:42;6.60;;;3.30;;
10009;SDS011;5044;48.652;9.250;2022-07-17T04:07:09;7.00;;;3.50;;
10009;SDS011;5044;48.652;9.250;2022-07-17T04:09:52;5.55;;;3.40;;
10009;SDS011;5044;48.652;9.250;2022-07-17T04:12:19;4.43;;;3.10;;
10009;SDS011;5044;48.652;9.250;2022-07-17T04:14:47;3.92;;;2.70;;
10009;SDS011;5044;48.652;9.250;2022-07-17T04:17:14;4.85;;;2.92;;
10009;SDS011;5044;48.652;9.250;2022-07-17T04:19:41;5.32;;;3.03;;
10009;SDS011;5044;48.652;9.250;2022-07-17T04:22:08;3.85;;;3.15;;
10009;SDS011;5044;48.652;9.250;2022-07-17T04:24:35;4.72;;;2.70;;
10009;SDS011;5044;48.652;9.250;2022-07-17T04:27:02;3.38;;;2.35;;
10009;SDS011;5044;48.652;9.250;2022-07-17T04:29:29;8.93;;;2.80;;
10009;SDS011;5044;48.652;9.250;2022-07-17T04:31:57;5.40;;;2.60;;
10009;SDS011;5044;48.652;9.250;2022-07-17T04:34:24;7.22;;;3.10;;
10009;SDS011;5044;48.652;9.250;2022-07-17T04:36:51;4.65;;;2.92;;
10009;SDS011;5044;48.652;9.250;2022-07-17T04:39:18;6.35;;;2.67;;
10009;SDS011;5044;48.652;9.250;2022-07-17T04:41:45;4.50;;;3.13;;
10009;SDS011;5044;48.652;9.250;2022-07-17T04:44:12;3.75;;;2.65;;
10009;SDS011;5044;48.652;9.250;2022-07-17T04:46:38;4.85;;;2.63;;
10009;SDS011;5044;48.652;9.250;2022-07-17T04:49:07;5.00;;;3.25;;
10009;SDS011;5044;48.652;9.250;2022-07-17T04:51:33;5.68;;;3.53;;
10009;SDS011;5044;48.652;9.250;2022-07-17T04:54:00;6.20;;;2.88;;
10009;SDS011;5044;48.652;9.250;2022-07-17T04:56:27;4.38;;;2.70;;
10009;SDS011;5044;48.652;9.250;2022-07-17T04:58:54;2.63;;;2.00;;
10009;SDS011;5044;48.652;9.250;2022-07-17T05:01:21;2.75;;;1.95;;
10009;SDS011;5044;48.652;9.250;2022-07-17T05:03:48;2.53;;;2.25;;
10009;SDS011;5044;48.652;9.250;2022-07-17T05:06:16;3.60;;;2.47;;
10009;SDS011;5044;48.652;9.250;2022-07-17T05:08:43;3.67;;;2.03;;
10009;SDS011;5044;48.652;9.250;2022-07-17T05:11:10;4.28;;;2.00;;
10009;SDS011;5044;48.652;9.250;2022-07-17T05:13:37;2.92;;;2.40;;
10009;SDS011;5044;48.652;9.250;2022-07-17T05:16:04;3.60;;;2.50;;
10009;SDS011;5044;48.652;9.250;2022-07-17T05:18:31;6.75;;;2.58;;
10009;SDS011;5044;48.652;9.250;2022-07-17T05:20:58;2.97;;;2.33;;
10009;SDS011;5044;48.652;9.250;2022-07-17T05:23:26;2.42;;;2.05;;
10009;SDS011;5044;48.652;9.250;2022-07-17T05:25:53;4.32;;;2.92;;
10009;SDS011;5044;48.652;9.250;2022-07-17T05:28:20;4.72;;;3.47;;
10009;SDS011;5044;48.652;9.250;2022-07-17T05:30:47;4.35;;;2.80;;
10009;SDS011;5044;48.652;9.250;2022-07-17T05:33:14;4.18;;;2.72;;
10009;SDS011;5044;48.652;9.250;2022-07-17T05:35:40;3.20;;;2.90;;
10009;SDS011;5044;48.652;9.250;2022-07-17T05:38:07;3.85;;;2.92;;
10009;SDS011;5044;48.652;9.250;2022-07-17T05:40:37;4.70;;;2.40;;
10009;SDS011;5044;48.652;9.250;2022-07-17T05:43:04;4.20;;;2.42;;
10009;SDS011;5044;48.652;9.250;2022-07-17T05:45:31;3.40;;;2.30;;
10009;SDS011;5044;48.652;9.250;2022-07-17T05:47:59;3.80;;;2.85;;
10009;SDS011;5044;48.652;9.250;2022-07-17T05:50:26;3.03;;;2.42;;
10009;SDS011;5044;48.652;9.250;2022-07-17T05:52:53;12.63;;;2.83;;
10009;SDS011;5044;48.652;9.250;2022-07-17T05:55:20;8.73;;;2.60;;
10009;SDS011;5044;48.652;9.250;2022-07-17T05:57:48;7.97;;;2.67;;
10009;SDS011;5044;48.652;9.250;2022-07-17T06:00:15;3.08;;;2.20;;
10009;SDS011;5044;48.652;9.250;2022-07-17T06:02:43;2.10;;;1.90;;
10009;SDS011;5044;48.652;9.250;2022-07-17T06:05:10;4.03;;;2.40;;
10009;SDS011;5044;48.652;9.250;2022-07-17T06:07:37;2.90;;;2.30;;
10009;SDS011;5044;48.652;9.250;2022-07-17T06:10:04;2.65;;;2.45;;
10009;SDS011;5044;48.652;9.250;2022-07-17T06:12:32;3.70;;;2.33;;
10009;SDS011;5044;48.652;9.250;2022-07-17T06:15:00;4.93;;;1.90;;
10009;SDS011;5044;48.652;9.250;2022-07-17T06:17:27;2.85;;;1.95;;
10009;SDS011;5044;48.652;9.250;2022-07-17T06:19:54;4.55;;;1.60;;
10009;SDS011;5044;48.652;9.250;2022-07-17T06:22:21;4.13;;;1.92;;
10009;SDS011;5044;48.652;9.250;2022-07-17T06:24:48;5.05;;;2.08;;
10009;SDS011;5044;48.652;9.250;2022-07-17T06:27:15;2.45;;;1.75;;
10009;SDS011;5044;48.652;9.250;2022-07-17T06:29:42;4.72;;;2.03;;
10009;SDS011;5044;48.652;9.250;2022-07-17T06:32:11;2.42;;;1.83;;
10009;SDS011;5044;48.652;9.250;2022-07-17T06:34:38;6.82;;;2.28;;
10009;SDS011;5044;48.652;9.250;2022-07-17T06:37:05;7.45;;;2.33;;
10009;SDS011;5044;48.652;9.250;2022-07-17T06:39:32;3.05;;;2.10;;
10009;SDS011;5044;48.652;9.250;2022-07-17T06:41:59;2.53;;;2.00;;
10009;SDS011;5044;48.652;9.250;2022-07-17T06:44:26;6.75;;;2.33;;
10009;SDS011;5044;48.652;9.250;2022-07-17T06:46:53;4.65;;;2.15;;
10009;SDS011;5044;48.652;9.250;2022-07-17T06:49:22;2.63;;;2.17;;
10009;SDS011;5044;48.652;9.250;2022-07-17T06:51:49;4.47;;;2.10;;
10009;SDS011;5044;48.652;9.250;2022-07-17T06:54:16;2.83;;;2.03;;
10009;SDS011;5044;48.652;9.250;2022-07-17T06:56:42;2.95;;;2.50;;
10009;SDS011;5044;48.652;9.250;2022-07-17T06:59:09;2.15;;;1.75;;
10009;SDS011;5044;48.652;9.250;2022-07-17T07:01:37;3.38;;;2.35;;
10009;SDS011;5044;48.652;9.250;2022-07-17T07:04:04;5.43;;;1.92;;
10009;SDS011;5044;48.652;9.250;2022-07-17T07:06:32;5.45;;;1.98;;
10009;SDS011;5044;48.652;9.250;2022-07-17T07:08:59;4.13;;;1.73;;
10009;SDS011;5044;48.652;9.250;2022-07-17T07:11:26;2.45;;;1.80;;
10009;SDS011;5044;48.652;9.250;2022-07-17T07:13:55;6.03;;;1.45;;
10009;SDS011;5044;48.652;9.250;2022-07-17T07:16:21;4.18;;;1.55;;
10009;SDS011;5044;48.652;9.250;2022-07-17T07:18:48;2.67;;;1.63;;
10009;SDS011;5044;48.652;9.250;2022-07-17T07:21:15;3.10;;;1.80;;
10009;SDS011;5044;48.652;9.250;2022-07-17T07:23:44;3.47;;;1.95;;
10009;SDS011;5044;48.652;9.250;2022-07-17T07:26:11;3.17;;;2.35;;
10009;SDS011;5044;48.652;9.250;2022-07-17T07:28:37;2.38;;;1.33;;
10009;SDS011;5044;48.652;9.250;2022-07-17T07:31:04;3.42;;;1.60;;
10009;SDS011;5044;48.652;9.250;2022-07-17T07:33:31;2.85;;;1.50;;
10009;SDS011;5044;48.652;9.250;2022-07-17T07:35:58;3.25;;;1.40;;
10009;SDS011;5044;48.652;9.250;2022-07-17T07:38:25;2.78;;;1.50;;
10009;SDS011;5044;48.652;9.250;2022-07-17T07:40:54;2.28;;;1.52;;
10009;SDS011;5044;48.652;9.250;2022-07-17T07:43:21;2.45;;;1.10;;
10009;SDS011;5044;48.652;9.250;2022-07-17T07:45:49;3.40;;;1.58;;
10009;SDS011;5044;48.652;9.250;2022-07-17T07:48:15;2.30;;;1.45;;
10009;SDS011;5044;48.652;9.250;2022-07-17T07:50:43;1.88;;;1.23;;
10009;SDS011;5044;48.652;9.250;2022-07-17T07:53:09;3.15;;;1.83;;
10009;SDS011;5044;48.652;9.250;2022-07-17T07:55:36;2.60;;;1.88;;
10009;SDS011;5044;48.652;9.250;2022-07-17T07:58:05;4.05;;;1.90;;
10009;SDS011;5044;48.652;9.250;2022-07-17T08:00:34;6.57;;;1.67;;
10009;SDS011;5044;48.652;9.250;2022-07-17T08:03:01;2.25;;;1.77;;
10009;SDS011;5044;48.652;9.250;2022-07-17T08:05:28;3.75;;;1.45;;
10009;SDS011;5044;48.652;9.250;2022-07-17T08:07:56;2.13;;;1.42;;
10009;SDS011;5044;48.652;9.250;2022-07-17T08:10:23;3.33;;;1.50;;
10009;SDS011;5044;48.652;9.250;2022-07-17T08:12:50;2.92;;;1.45;;
10009;SDS011;5044;48.652;9.250;2022-07-17T08:15:18;3.25;;;1.48;;
10009;SDS011;5044;48.652;9.250;2022-07-17T08:17:49;2.38;;;1.40;;
10009;SDS011;5044;48.652;9.250;2022-07-17T08:20:18;1.38;;;1.10;;
10009;SDS011;5044;48.652;9.250;2022-07-17T08:22:45;1.50;;;1.27;;
10009;SDS011;5044;48.652;9.250;2022-07-17T08:25:13;1.60;;;1.20;;
10009;SDS011;5044;48.652;9.250;2022-07-17T08:27:41;2.40;;;1.42;;
10009;SDS011;5044;48.652;9.250;2022-07-17T08:30:09;1.52;;;1.20;;
10009;SDS011;5044;48.652;9.250;2022-07-17T08:32:40;2.50;;;1.50;;
10009;SDS011;5044;48.652;9.250;2022-07-17T08:35:08;1.83;;;1.40;;
10009;SDS011;5044;48.652;9.250;2022-07-17T08:37:44;1.73;;;1.20;;
10009;SDS011;5044;48.652;9.250;2022-07-17T08:40:17;4.07;;;1.15;;
10009;SDS011;5044;48.652;9.250;2022-07-17T08:42:46;1.45;;;1.20;;
10009;SDS011;5044;48.652;9.250;2022-07-17T08:45:13;2.42;;;1.20;;
10009;SDS011;5044;48.652;9.250;2022-07-17T08:47:41;1.90;;;1.33;;
10009;SDS011;5044;48.652;9.250;2022-07-17T08:50:08;1.98;;;1.00;;
10009;SDS011;5044;48.652;9.250;2022-07-17T08:52:36;1.55;;;1.00;;
10009;SDS011;5044;48.652;9.250;2022-07-17T08:55:04;1.10;;;1.00;;
10009;SDS011;5044;48.652;9.250;2022-07-17T08:57:36;1.55;;;1.30;;
10009;SDS011;5044;48.652;9.250;2022-07-17T09:00:05;1.83;;;1.07;;
10009;SDS011;5044;48.652;9.250;2022-07-17T09:02:33;1.48;;;1.20;;
10009;SDS011;5044;48.652;9.250;2022-07-17T09:05:02;2.60;;;1.55;;
10009;SDS011;5044;48.652;9.250;2022-07-17T09:07:29;1.58;;;1.10;;
10009;SDS011;5044;48.652;9.250;2022-07-17T09:09:57;1.75;;;1.38;;
10009;SDS011;5044;48.652;9.250;2022-07-17T09:12:25;2.60;;;1.00;;
10009;SDS011;5044;48.652;9.250;2022-07-17T09:14:53;2.63;;;1.30;;
10009;SDS011;5044;48.652;9.250;2022-07-17T09:17:20;1.65;;;1.08;;
10009;SDS011;5044;48.652;9.250;2022-07-17T09:19:47;1.20;;;1.10;;
10009;SDS011;5044;48.652;9.250;2022-07-17T09:22:17;1.23;;;1.00;;
10009;SDS011;5044;48.652;9.250;2022-07-17T09:24:48;1.85;;;1.15;;
10009;SDS011;5044;48.652;9.250;2022-07-17T09:27:27;3.33;;;1.08;;
10009;SDS011;5044;48.652;9.250;2022-07-17T09:29:56;3.35;;;1.70;;
10009;SDS011;5044;48.652;9.250;2022-07-17T09:32:25;1.42;;;1.15;;
10009;SDS011;5044;48.652;9.250;2022-07-17T09:34:54;1.55;;;1.00;;
10009;SDS011;5044;48.652;9.250;2022-07-17T09:37:25;1.17;;;0.98;;
10009;SDS011;5044;48.652;9.250;2022-07-17T09:39:54;1.73;;;1.13;;
10009;SDS011;5044;48.652;9.250;2022-07-17T09:42:22;2.15;;;1.45;;
10009;SDS011;5044;48.652;9.250;2022-07-17T09:44:54;2.42;;;1.00;;
10009;SDS011;5044;48.652;9.250;2022-07-17T09:47:25;1.10;;;1.00;;
10009;SDS011;5044;48.652;9.250;2022-07-17T09:49:53;1.60;;;0.95;;
10009;SDS011;5044;48.652;9.250;2022-07-17T09:52:22;1.92;;;1.08;;
10009;SDS011;5044;48.652;9.250;2022-07-17T09:54:52;3.38;;;1.20;;
10009;SDS011;5044;48.652;9.250;2022-07-17T09:57:20;2.05;;;1.30;;
10009;SDS011;5044;48.652;9.250;2022-07-17T09:59:52;2.70;;;1.00;;
10009;SDS011;5044;48.652;9.250;2022-07-17T10:02:20;1.42;;;1.23;;
10009;SDS011;5044;48.652;9.250;2022-07-17T10:04:48;1.67;;;1.00;;
10009;SDS011;5044;48.652;9.250;2022-07-17T10:07:15;2.05;;;1.20;;
10009;SDS011;5044;48.652;9.250;2022-07-17T10:09:43;2.88;;;1.17;;
10009;SDS011;5044;48.652;9.250;2022-07-17T10:12:11;3.28;;;1.02;;
10009;SDS011;5044;48.652;9.250;2022-07-17T10:14:39;1.70;;;1.15;;
10009;SDS011;5044;48.652;9.250;2022-07-17T10:17:07;4.22;;;1.73;;
10009;SDS011;5044;48.652;9.250;2022-07-17T10:19:43;2.08;;;1.00;;
10009;SDS011;5044;48.652;9.250;2022-07-17T10:22:12;3.08;;;1.00;;
10009;SDS011;5044;48.652;9.250;2022-07-17T10:24:46;3.97;;;1.10;;
10009;SDS011;5044;48.652;9.250;2022-07-17T10:27:17;1.10;;;1.00;;
10009;SDS011;5044;48.652;9.250;2022-07-17T10:29:58;1.13;;;1.02;;
10009;SDS011;5044;48.652;9.250;2022-07-17T10:32:26;2.17;;;1.05;;
10009;SDS011;5044;48.652;9.250;2022-07-17T10:34:53;2.28;;;0.98;;
10009;SDS011;5044;48.652;9.250;2022-07-17T10:37:31;1.88;;;0.95;;
10009;SDS011;5044;48.652;9.250;2022-07-17T10:40:04;1.45;;;1.15;;
10009;SDS011;5044;48.652;9.250;2022-07-17T10:42:46;1.15;;;1.02;;
10009;SDS011;5044;48.652;9.250;2022-07-17T10:45:24;1.23;;;1.13;;
10009;SDS011;5044;48.652;9.250;2022-07-17T10:47:54;4.53;;;1.08;;
10009;SDS011;5044;48.652;9.250;2022-07-17T10:50:24;1.55;;;1.25;;
10009;SDS011;5044;48.652;9.250;2022-07-17T10:52:59;1.10;;;1.00;;
10009;SDS011;5044;48.652;9.250;2022-07-17T10:55:30;1.08;;;0.90;;
10009;SDS011;5044;48.652;9.250;2022-07-17T10:57:57;1.10;;;1.00;;
10009;SDS011;5044;48.652;9.250;2022-07-17T11:00:24;3.47;;;1.10;;
10009;SDS011;5044;48.652;9.250;2022-07-17T11:02:52;1.55;;;1.27;;
10009;SDS011;5044;48.652;9.250;2022-07-17T11:05:19;1.98;;;1.00;;
10009;SDS011;5044;48.652;9.250;2022-07-17T11:07:51;1.40;;;1.20;;
10009;SDS011;5044;48.652;9.250;2022-07-17T11:10:19;2.28;;;1.13;;
10009;SDS011;5044;48.652;9.250;2022-07-17T11:12:48;2.33;;;1.25;;
10009;SDS011;5044;48.652;9.250;2022-07-17T11:15:16;2.95;;;1.20;;
10009;SDS011;5044;48.652;9.250;2022-07-17T11:17:44;1.50;;;1.02;;
10009;SDS011;5044;48.652;9.250;2022-07-17T11:20:12;1.30;;;1.20;;
10009;SDS011;5044;48.652;9.250;2022-07-17T11:22:40;2.03;;;1.42;;
10009;SDS011;5044;48.652;9.250;2022-07-17T11:25:07;1.00;;;0.90;;
10009;SDS011;5044;48.652;9.250;2022-07-17T11:27:36;0.93;;;0.93;;
10009;SDS011;5044;48.652;9.250;2022-07-17T11:30:10;0.80;;;0.80;;
10009;SDS011;5044;48.652;9.250;2022-07-17T11:32:41;1.50;;;1.15;;
10009;SDS011;5044;48.652;9.250;2022-07-17T11:35:15;1.58;;;1.10;;
10009;SDS011;5044;48.652;9.250;2022-07-17T11:37:43;3.22;;;1.25;;
10009;SDS011;5044;48.652;9.250;2022-07-17T11:40:10;2.80;;;1.05;;
10009;SDS011;5044;48.652;9.250;2022-07-17T11:42:37;2.65;;;1.10;;
10009;SDS011;5044;48.652;9.250;2022-07-17T11:45:06;2.17;;;1.10;;
10009;SDS011;5044;48.652;9.250;2022-07-17T11:47:35;1.00;;;0.90;;
10009;SDS011;5044;48.652;9.250;2022-07-17T11:50:06;1.58;;;0.90;;
10009;SDS011;5044;48.652;9.250;2022-07-17T11:52:42;1.00;;;0.80;;
10009;SDS011;5044;48.652;9.250;2022-07-17T11:55:10;1.10;;;1.00;;
10009;SDS011;5044;48.652;9.250;2022-07-17T11:57:41;2.00;;;1.17;;
10009;SDS011;5044;48.652;9.250;2022-07-17T12:00:13;1.25;;;0.88;;
10009;SDS011;5044;48.652;9.250;2022-07-17T12:02:41;1.77;;;1.02;;
10009;SDS011;5044;48.652;9.250;2022-07-17T12:05:08;1.35;;;1.00;;
10009;SDS011;5044;48.652;9.250;2022-07-17T12:07:39;1.77;;;0.90;;
10009;SDS011;5044;48.652;9.250;2022-07-17T12:10:13;1.38;;;0.80;;
10009;SDS011;5044;48.652;9.250;2022-07-17T12:12:50;1.92;;;1.00;;
10009;SDS011;5044;48.652;9.250;2022-07-17T12:15:32;2.47;;;1.02;;
10009;SDS011;5044;48.652;9.250;2022-07-17T12:20:39;1.90;;;0.80;;
10009;SDS011;5044;48.652;9.250;2022-07-17T12:23:07;1.33;;;1.08;;
10009;SDS011;5044;48.652;9.250;2022-07-17T12:25:34;1.63;;;0.90;;
10009;SDS011;5044;48.652;9.250;2022-07-17T12:28:01;1.05;;;0.95;;
10009;SDS011;5044;48.652;9.250;2022-07-17T12:30:29;1.13;;;0.90;;
10009;SDS011;5044;48.652;9.250;2022-07-17T12:32:57;3.90;;;1.95;;
10009;SDS011;5044;48.652;9.250;2022-07-17T12:35:24;2.30;;;0.93;;
10009;SDS011;5044;48.652;9.250;2022-07-17T12:37:51;3.75;;;1.08;;
10009;SDS011;5044;48.652;9.250;2022-07-17T12:40:18;1.02;;;0.90;;
10009;SDS011;5044;48.652;9.250;2022-07-17T12:42:45;1.10;;;0.90;;
10009;SDS011;5044;48.652;9.250;2022-07-17T12:45:11;1.30;;;0.90;;
10009;SDS011;5044;48.652;9.250;2022-07-17T12:47:40;9.75;;;1.20;;
10009;SDS011;5044;48.652;9.250;2022-07-17T12:50:07;1.73;;;1.00;;
10009;SDS011;5044;48.652;9.250;2022-07-17T12:52:35;1.08;;;0.90;;
10009;SDS011;5044;48.652;9.250;2022-07-17T12:55:02;2.13;;;1.23;;
10009;SDS011;5044;48.652;9.250;2022-07-17T12:57:31;1.25;;;1.00;;
10009;SDS011;5044;48.652;9.250;2022-07-17T12:59:58;4.15;;;1.08;;
10009;SDS011;5044;48.652;9.250;2022-07-17T13:02:25;1.70;;;0.90;;
10009;SDS011;5044;48.652;9.250;2022-07-17T13:04:54;2.00;;;1.08;;
10009;SDS011;5044;48.652;9.250;2022-07-17T13:07:21;2.45;;;1.20;;
10009;SDS011;5044;48.652;9.250;2022-07-17T13:09:48;1.20;;;1.10;;
10009;SDS011;5044;48.652;9.250;2022-07-17T13:12:14;1.80;;;1.20;;
10009;SDS011;5044;48.652;9.250;2022-07-17T13:14:41;1.70;;;1.17;;
10009;SDS011;5044;48.652;9.250;2022-07-17T13:17:08;1.25;;;1.00;;
10009;SDS011;5044;48.652;9.250;2022-07-17T13:19:35;2.75;;;0.93;;
10009;SDS011;5044;48.652;9.250;2022-07-17T13:22:03;1.30;;;1.20;;
10009;SDS011;5044;48.652;9.250;2022-07-17T13:24:30;1.20;;;1.10;;
10009;SDS011;5044;48.652;9.250;2022-07-17T13:26:57;2.25;;;0.93;;
10009;SDS011;5044;48.652;9.250;2022-07-17T13:29:24;0.98;;;0.88;;
10009;SDS011;5044;48.652;9.250;2022-07-17T13:31:52;1.15;;;1.05;;
10009;SDS011;5044;48.652;9.250;2022-07-17T13:34:19;3.65;;;0.82;;
10009;SDS011;5044;48.652;9.250;2022-07-17T13:36:46;3.30;;;1.38;;
10009;SDS011;5044;48.652;9.250;2022-07-17T13:39:15;0.95;;;0.90;;
10009;SDS011;5044;48.652;9.250;2022-07-17T13:41:42;0.80;;;0.80;;
10009;SDS011;5044;48.652;9.250;2022-07-17T13:44:09;1.58;;;1.30;;
10009;SDS011;5044;48.652;9.250;2022-07-17T13:46:36;1.73;;;1.08;;
10009;SDS011;5044;48.652;9.250;2022-07-17T13:49:03;1.63;;;1.52;;
10009;SDS011;5044;48.652;9.250;2022-07-17T13:51:30;1.00;;;0.90;;
10009;SDS011;5044;48.652;9.250;2022-07-17T13:53:57;2.65;;;1.08;;
10009;SDS011;5044;48.652;9.250;2022-07-17T13:56:25;0.90;;;0.90;;
10009;SDS011;5044;48.652;9.250;2022-07-17T13:58:52;1.33;;;0.93;;
10009;SDS011;5044;48.652;9.250;2022-07-17T14:01:19;1.13;;;1.02;;
10009;SDS011;5044;48.652;9.250;2022-07-17T14:03:46;1.92;;;0.98;;
10009;SDS011;5044;48.652;9.250;2022-07-17T14:06:13;1.38;;;1.27;;
10009;SDS011;5044;48.652;9.250;2022-07-17T14:08:40;1.80;;;1.20;;
10009;SDS011;5044;48.652;9.250;2022-07-17T14:11:07;3.17;;;1.00;;
10009;SDS011;5044;48.652;9.250;2022-07-17T14:13:37;1.48;;;1.00;;
10009;SDS011;5044;48.652;9.250;2022-07-17T14:16:04;2.63;;;1.17;;
10009;SDS011;5044;48.652;9.250;2022-07-17T14:18:31;1.38;;;1.05;;
10009;SDS011;5044;48.652;9.250;2022-07-17T14:20:58;2.08;;;1.10;;
10009;SDS011;5044;48.652;9.250;2022-07-17T14:23:25;1.50;;;1.05;;
10009;SDS011;5044;48.652;9.250;2022-07-17T14:25:52;2.83;;;1.02;;
10009;SDS011;5044;48.652;9.250;2022-07-17T14:28:19;2.85;;;1.15;;
10009;SDS011;5044;48.652;9.250;2022-07-17T14:30:47;2.28;;;1.15;;
10009;SDS011;5044;48.652;9.250;2022-07-17T14:33:14;1.00;;;0.90;;
10009;SDS011;5044;48.652;9.250;2022-07-17T14:35:41;1.10;;;1.00;;
10009;SDS011;5044;48.652;9.250;2022-07-17T14:38:08;1.42;;;1.00;;
10009;SDS011;5044;48.652;9.250;2022-07-17T14:40:35;2.13;;;1.20;;
10009;SDS011;5044;48.652;9.250;2022-07-17T14:43:02;1.20;;;1.10;;
10009;SDS011;5044;48.652;9.250;2022-07-17T14:45:29;2.92;;;0.90;;
10009;SDS011;5044;48.652;9.250;2022-07-17T14:47:57;2.08;;;1.20;;
10009;SDS011;5044;48.652;9.250;2022-07-17T14:50:24;1.75;;;1.15;;
10009;SDS011;5044;48.652;9.250;2022-07-17T14:52:50;1.55;;;1.00;;
10009;SDS011;5044;48.652;9.250;2022-07-17T14:55:17;1.17;;;1.00;;
10009;SDS011;5044;48.652;9.250;2022-07-17T14:57:44;1.63;;;0.98;;
10009;SDS011;5044;48.652;9.250;2022-07-17T15:00:11;1.35;;;1.05;;
10009;SDS011;5044;48.652;9.250;2022-07-17T15:02:39;2.13;;;1.08;;
10009;SDS011;5044;48.652;9.250;2022-07-17T15:05:08;2.80;;;1.02;;
10009;SDS011;5044;48.652;9.250;2022-07-17T15:07:35;3.53;;;1.00;;